Horinsk, Russia
Current Conditions -  °F | °C
As of 3:00 PM on Sunday 26 Oct 2014 (Local Time) from UIUU Reporting Station
Few Clouds Few Clouds  
Wind Chill: 21°   Ceiling: Unl
Heat Index: 28°   Visibility: 6mi
Dew Point: 10°   Wind: 7mph
Humidity: 47%   Direction: 90°E
Pressure: 30.33"   Gusts: NA
Location:  52.17°N, 109.77°E
Report Text: UIUU 260700Z 09003MPS 050V140 9999 FEW100 M02/M12 Q1027 NOSIGRMK QFE725/0967 26CLRD60
Loading
Personal Weather Stations






























Interactive Weather Map
Tropical Storm Tracking
New forecast layout! Learn more

10-Day Weather Forecast

Advertisements
Track Severe Weather on mobile